Time;durP1;ratioP1;P1;durP2;ratioP2;P2;SDS_P1;SDS_P2;PMS_P1;PMS_P2;Temp;Humidity;BMP_temperature;BMP_pressure;BME280_temperature;BME280_humidity;BME280_pressure;Samples;Min_cycle;Max_cycle;Signal;HPM_P1;HPM_P2
2023/12/20 00:03:19;;;;;;;2.53;2.43;;;;;;;5.97;100.00;99891.05;4872671;58;1136682;-78
2023/12/20 00:08:25;;;;;;;2.00;1.90;;;;;;;5.97;100.00;99888.42;4755950;59;1136911;-78
2023/12/20 00:13:30;;;;;;;3.13;2.80;;;;;;;5.99;100.00;99880.45;4853834;58;1136525;-79
2023/12/20 00:18:36;;;;;;;2.70;2.50;;;;;;;6.00;100.00;99875.57;4853912;58;1136704;-83
2023/12/20 00:23:41;;;;;;;2.60;2.40;;;;;;;5.98;100.00;99870.42;4871480;58;1136451;-80
2023/12/20 00:28:47;;;;;;;2.03;1.93;;;;;;;6.00;100.00;99869.00;4852380;58;1136551;-81
2023/12/20 00:33:52;;;;;;;2.63;2.40;;;;;;;6.00;100.00;99878.20;4797668;58;1136932;-78
2023/12/20 00:38:58;;;;;;;2.40;2.30;;;;;;;6.00;100.00;99875.57;4826662;59;1136861;-78
2023/12/20 00:44:04;;;;;;;2.77;2.37;;;;;;;6.01;100.00;99869.38;4803399;59;1137051;-79
2023/12/20 00:49:09;;;;;;;1.67;1.63;;;;;;;6.01;100.00;99869.38;4811474;59;1137049;-77
2023/12/20 00:54:15;;;;;;;2.12;2.02;;;;;;;6.03;100.00;99865.34;4831009;59;1136762;-79
2023/12/20 00:59:20;;;;;;;2.02;1.92;;;;;;;6.02;100.00;99860.56;4810502;59;1137414;-82
2023/12/20 01:04:26;;;;;;;2.23;1.60;;;;;;;5.99;100.00;99856.83;4811760;59;1136585;-78
2023/12/20 01:09:31;;;;;;;1.67;1.57;;;;;;;6.01;100.00;99851.00;4861751;58;1136583;-80
2023/12/20 01:14:37;;;;;;;1.60;1.60;;;;;;;6.00;100.00;99850.63;4811741;60;1136852;-78
2023/12/20 01:19:42;;;;;;;1.80;1.70;;;;;;;6.00;100.00;99851.47;4811826;60;1136900;-77
2023/12/20 01:24:48;;;;;;;1.73;1.63;;;;;;;6.00;100.00;99848.84;4831541;59;1136503;-79
2023/12/20 01:29:54;;;;;;;1.57;1.47;;;;;;;5.99;100.00;99843.23;4778725;59;1136465;-79
2023/12/20 01:34:59;;;;;;;3.73;1.50;;;;;;;6.00;100.00;99832.26;4739672;60;1136840;-79
2023/12/20 01:40:06;;;;;;;1.63;1.53;;;;;;;5.99;100.00;99833.20;4810302;59;1136766;-79
2023/12/20 01:45:11;;;;;;;2.00;1.80;;;;;;;6.02;100.00;99833.00;4832189;59;1136817;-79
2023/12/20 01:50:18;;;;;;;1.53;1.50;;;;;;;6.00;100.00;99820.45;4832323;59;1136664;-78
2023/12/20 01:55:24;;;;;;;1.90;1.80;;;;;;;6.00;100.00;99813.89;4851128;59;1136248;-79
2023/12/20 02:00:31;;;;;;;1.63;1.53;;;;;;;6.00;100.00;99814.73;4831746;59;1136651;-78
2023/12/20 02:05:38;;;;;;;1.33;1.33;;;;;;;5.99;100.00;99799.08;4835275;59;1136516;-80
2023/12/20 02:10:44;;;;;;;1.77;1.67;;;;;;;5.97;100.00;99795.25;4833026;59;1137089;-80
2023/12/20 02:15:50;;;;;;;2.70;1.53;;;;;;;5.94;100.00;99794.17;4850877;60;1135009;-79
2023/12/20 02:20:56;;;;;;;1.47;1.37;;;;;;;5.92;100.00;99794.75;4830102;59;1137024;-78
2023/12/20 02:26:02;;;;;;;1.53;1.47;;;;;;;5.94;100.00;99792.87;4798379;59;1136976;-81
2023/12/20 02:31:08;;;;;;;3.37;1.72;;;;;;;5.94;100.00;99786.78;4783273;60;1136839;-79
2023/12/20 02:36:13;;;;;;;1.50;1.50;;;;;;;5.93;100.00;99790.34;4709542;60;1146031;-78
2023/12/20 02:41:19;;;;;;;4.57;1.37;;;;;;;5.91;100.00;99783.89;4830158;58;1136771;-80
2023/12/20 02:46:25;;;;;;;1.82;1.72;;;;;;;5.91;100.00;99772.08;4831413;59;1136761;-80
2023/12/20 02:51:30;;;;;;;1.37;1.37;;;;;;;5.92;100.00;99767.67;4810534;59;1136863;-80
2023/12/20 02:56:36;;;;;;;2.10;1.93;;;;;;;5.91;100.00;99765.52;4812516;59;1136708;-84
2023/12/20 03:01:46;;;;;;;1.55;1.45;;;;;;;5.90;100.00;99763.84;4815670;59;1136787;-81
2023/12/20 03:06:52;;;;;;;1.20;1.10;;;;;;;5.88;100.00;99762.23;4823183;59;1136722;-80
2023/12/20 03:11:57;;;;;;;2.07;1.97;;;;;;;5.88;100.00;99768.79;4813997;59;1136750;-80
2023/12/20 03:17:03;;;;;;;4.10;2.40;;;;;;;5.88;100.00;99770.97;4815433;59;1136625;-81
2023/12/20 03:22:09;;;;;;;1.90;1.80;;;;;;;5.87;100.00;99763.17;4817028;59;1136952;-79
2023/12/20 03:27:14;;;;;;;12.18;6.87;;;;;;;5.87;100.00;99760.08;4762344;59;1136754;-81
2023/12/20 03:32:20;;;;;;;2.30;2.10;;;;;;;5.86;100.00;99764.13;4852288;58;1138971;-78
2023/12/20 03:37:25;;;;;;;3.58;2.52;;;;;;;5.84;100.00;99764.70;4943571;58;1136546;-79
2023/12/20 03:42:31;;;;;;;2.92;2.08;;;;;;;5.84;100.00;99756.83;4834134;58;1136551;-81
2023/12/20 03:47:36;;;;;;;2.07;1.97;;;;;;;5.84;100.00;99768.63;4818477;59;1136561;-78
2023/12/20 03:52:42;;;;;;;3.10;2.27;;;;;;;5.82;100.00;99770.52;4735225;59;1134624;-78
2023/12/20 03:57:47;;;;;;;2.50;2.27;;;;;;;5.79;100.00;99774.22;4723051;59;1134606;-81
2023/12/20 04:02:53;;;;;;;3.97;2.20;;;;;;;5.77;100.00;99765.62;4708899;60;1134636;-76
2023/12/20 04:08:00;;;;;;;13.20;3.20;;;;;;;5.77;100.00;99759.06;4784805;59;1136682;-79
2023/12/20 04:13:06;;;;;;;1.65;1.55;;;;;;;5.76;100.00;99749.51;4874029;59;1138705;-81
2023/12/20 04:18:11;;;;;;;2.63;1.63;;;;;;;5.75;100.00;99749.14;4862025;59;1136717;-77
2023/12/20 04:23:17;;;;;;;3.37;1.82;;;;;;;5.75;100.00;99749.61;4819152;59;1136592;-78
2023/12/20 04:28:22;;;;;;;3.55;2.42;;;;;;;5.76;100.00;99753.91;4831621;60;1136950;-78
2023/12/20 04:33:28;;;;;;;1.50;1.40;;;;;;;5.74;100.00;99747.93;4814446;59;1136702;-82
2023/12/20 04:38:33;;;;;;;1.80;1.70;;;;;;;5.72;100.00;99741.48;4814285;59;1136685;-79
2023/12/20 04:43:39;;;;;;;3.14;2.68;;;;;;;5.75;100.00;99737.80;4814655;59;1136846;-78
2023/12/20 04:48:45;;;;;;;3.23;2.40;;;;;;;5.73;100.00;99741.00;4876169;58;1136751;-82
2023/12/20 04:53:50;;;;;;;1.90;1.80;;;;;;;5.71;100.00;99737.64;4865826;58;1134481;-82
2023/12/20 04:58:56;;;;;;;2.47;2.27;;;;;;;5.71;100.00;99739.80;4867693;58;1136672;-80
2023/12/20 05:04:01;;;;;;;3.37;2.37;;;;;;;5.70;100.00;99744.67;4922990;58;1136462;-82
2023/12/20 05:09:07;;;;;;;1.77;1.77;;;;;;;5.68;100.00;99741.31;4853624;58;1136889;-82
2023/12/20 05:14:12;;;;;;;1.73;1.63;;;;;;;5.68;100.00;99749.66;4854030;58;1136677;-80
2023/12/20 05:19:18;;;;;;;1.60;1.50;;;;;;;5.70;100.00;99749.92;4885905;58;1136640;-78
2023/12/20 05:24:23;;;;;;;1.52;1.47;;;;;;;5.71;100.00;99739.80;4879564;58;1136690;-84
2023/12/20 05:29:29;;;;;;;1.70;1.60;;;;;;;5.70;100.00;99748.61;4869849;58;1136518;-85
2023/12/20 05:34:35;;;;;;;2.07;1.97;;;;;;;5.75;100.00;99743.89;4888754;58;1146360;-82
2023/12/20 05:39:40;;;;;;;2.37;1.80;;;;;;;5.78;100.00;99751.55;4885392;58;1136785;-81
2023/12/20 05:44:46;;;;;;;1.40;1.30;;;;;;;5.78;100.00;99752.03;4835930;59;1136890;-82
2023/12/20 05:49:51;;;;;;;1.12;0.93;;;;;;;5.78;100.00;99738.44;4771399;58;1136746;-82
2023/12/20 05:55:00;;;;;;;1.00;1.00;;;;;;;5.78;100.00;99727.09;4766729;58;1136628;-79
2023/12/20 06:00:06;;;;;;;1.70;1.27;;;;;;;5.75;100.00;99741.27;4728618;59;1136722;-76
2023/12/20 06:05:13;;;;;;;1.02;0.93;;;;;;;5.71;100.00;99740.27;4780307;59;1136630;-76
2023/12/20 06:10:19;;;;;;;3.33;1.12;;;;;;;5.69;100.00;99732.97;4769800;59;1136732;-74
2023/12/20 06:15:24;;;;;;;2.77;0.80;;;;;;;5.65;100.00;99732.38;4718236;60;1136880;-77
2023/12/20 06:20:30;;;;;;;1.37;1.10;;;;;;;5.63;100.00;99732.95;4732374;60;1136747;-76
2023/12/20 06:25:35;;;;;;;1.00;1.00;;;;;;;5.60;100.00;99743.17;4735686;59;1136931;-81
2023/12/20 06:30:41;;;;;;;1.20;1.10;;;;;;;5.57;100.00;99746.00;4751516;60;1136814;-78
2023/12/20 06:35:47;;;;;;;2.27;1.10;;;;;;;5.52;100.00;99749.87;4707363;60;1136624;-79
2023/12/20 06:40:52;;;;;;;6.57;1.00;;;;;;;5.47;100.00;99747.59;4685634;60;1136717;-78
2023/12/20 06:45:58;;;;;;;1.73;0.90;;;;;;;5.40;100.00;99747.64;4754022;59;1136753;-78
2023/12/20 06:51:04;;;;;;;1.57;1.10;;;;;;;5.31;100.00;99750.90;4614670;60;1134606;-75
2023/12/20 06:56:12;;;;;;;4.00;1.03;;;;;;;5.27;100.00;99761.22;4648596;60;1136731;-74
2023/12/20 07:01:18;;;;;;;1.22;1.12;;;;;;;5.25;100.00;99770.96;4781426;59;1136620;-81
2023/12/20 07:06:25;;;;;;;4.97;1.55;;;;;;;5.17;100.00;99754.45;4864185;58;1136518;-81
2023/12/20 07:11:30;;;;;;;1.70;1.42;;;;;;;5.16;100.00;99768.98;4865179;58;1136729;-78
2023/12/20 07:16:36;;;;;;;6.17;2.17;;;;;;;5.14;100.00;99783.96;4862070;59;1136765;-81
2023/12/20 07:21:41;;;;;;;2.90;1.70;;;;;;;5.13;100.00;99785.74;4888566;58;1136808;-81
2023/12/20 07:26:47;;;;;;;2.93;1.87;;;;;;;5.14;100.00;99791.83;4866211;58;1136794;-78
2023/12/20 07:31:54;;;;;;;5.40;1.62;;;;;;;5.13;100.00;99784.90;4867079;58;1136738;-81
2023/12/20 07:36:59;;;;;;;3.27;1.93;;;;;;;5.10;100.00;99789.03;4883139;58;1134794;-79
2023/12/20 07:42:05;;;;;;;5.57;1.87;;;;;;;5.07;100.00;99786.14;4850292;58;1134734;-77
2023/12/20 07:47:15;;;;;;;9.47;1.87;;;;;;;5.06;100.00;99792.79;4837304;58;1134506;-77
2023/12/20 07:52:18;;;;;;;1.55;1.32;;;;;;;5.06;100.00;99788.39;4852723;58;1134633;-78
2023/12/20 07:57:24;;;;;;;3.30;2.02;;;;;;;5.05;100.00;99791.95;4861882;58;1134448;-80
2023/12/20 08:02:30;;;;;;;3.70;2.80;;;;;;;5.10;100.00;99784.62;4890417;58;1134673;-73
2023/12/20 08:07:35;;;;;;;4.53;3.40;;;;;;;5.11;100.00;99790.24;4811620;58;1134489;-74
2023/12/20 08:12:41;;;;;;;8.07;3.87;;;;;;;5.11;100.00;99783.69;4913891;58;1134449;-75
2023/12/20 08:17:46;;;;;;;7.50;5.17;;;;;;;5.14;100.00;99782.18;4932531;58;1134534;-79
2023/12/20 08:22:52;;;;;;;5.10;3.43;;;;;;;5.16;100.00;99778.98;4924994;58;1134530;-73
2023/12/20 08:27:58;;;;;;;6.77;4.30;;;;;;;5.16;100.00;99778.15;4890735;58;1134605;-71
2023/12/20 08:33:04;;;;;;;5.27;3.63;;;;;;;5.16;100.00;99776.37;4884977;58;1134883;-73
2023/12/20 08:38:09;;;;;;;5.77;3.63;;;;;;;5.15;100.00;99766.83;4872341;58;1134925;-73
2023/12/20 08:43:16;;;;;;;6.67;3.60;;;;;;;5.15;100.00;99771.22;4890173;59;1134166;-71
2023/12/20 08:48:21;;;;;;;4.50;3.58;;;;;;;5.16;100.00;99762.42;4862617;59;1134789;-73
2023/12/20 08:53:27;;;;;;;3.63;2.77;;;;;;;5.12;100.00;99769.64;4867317;59;1134560;-72
2023/12/20 08:58:33;;;;;;;6.22;2.85;;;;;;;5.11;100.00;99770.58;4928397;57;1134776;-75
2023/12/20 09:03:38;;;;;;;3.87;2.60;;;;;;;5.06;100.00;99767.89;4903443;58;1134672;-71
2023/12/20 09:08:44;;;;;;;11.53;3.55;;;;;;;4.99;100.00;99765.33;4890033;58;1134984;-72
2023/12/20 09:13:50;;;;;;;4.93;1.90;;;;;;;4.95;100.00;99757.66;4862367;58;1136535;-70
2023/12/20 09:18:55;;;;;;;3.43;1.63;;;;;;;4.96;100.00;99766.37;4878039;58;1134791;-71
2023/12/20 09:24:01;;;;;;;9.53;3.07;;;;;;;4.99;100.00;99754.38;4914103;58;1134567;-69
2023/12/20 09:29:07;;;;;;;4.83;1.90;;;;;;;5.04;100.00;99756.20;4971538;57;1134471;-71
2023/12/20 09:34:14;;;;;;;107.67;23.07;;;;;;;5.07;100.00;99749.45;4991038;57;1134712;-73
2023/12/20 09:39:20;;;;;;;8.43;3.33;;;;;;;5.12;100.00;99767.49;4922399;58;1140784;-75
2023/12/20 09:44:26;;;;;;;7.42;2.92;;;;;;;5.12;100.00;99759.63;4942143;58;1134361;-73
2023/12/20 09:49:32;;;;;;;29.30;7.33;;;;;;;5.13;100.00;99738.56;4919242;58;1134583;-76
2023/12/20 09:54:38;;;;;;;16.87;4.07;;;;;;;5.14;100.00;99745.95;4916123;58;1136679;-79
2023/12/20 09:59:43;;;;;;;22.37;6.10;;;;;;;5.19;100.00;99735.53;5000658;57;1136855;-76
2023/12/20 10:04:49;;;;;;;33.97;11.73;;;;;;;5.23;100.00;99725.66;5058801;57;1136893;-81
2023/12/20 10:09:56;;;;;;;27.03;9.80;;;;;;;5.25;100.00;99721.16;4924386;58;1139036;-81
2023/12/20 10:15:01;;;;;;;16.00;4.50;;;;;;;5.30;100.00;99699.41;4866524;58;1136986;-77
2023/12/20 10:20:09;;;;;;;34.73;10.03;;;;;;;5.33;100.00;99693.95;4917189;58;1136654;-81
2023/12/20 10:25:15;;;;;;;21.83;5.77;;;;;;;5.36;100.00;99687.63;4914539;58;1138688;-79
2023/12/20 10:30:20;;;;;;;6.73;3.07;;;;;;;5.38;100.00;99683.13;4828348;59;1136565;-74
2023/12/20 10:35:26;;;;;;;12.13;5.47;;;;;;;5.38;100.00;99675.27;4964385;58;1134437;-72
2023/12/20 10:40:33;;;;;;;12.60;4.72;;;;;;;5.38;100.00;99681.81;4956795;57;1137001;-70
2023/12/20 10:45:38;;;;;;;13.77;4.50;;;;;;;5.34;100.00;99672.52;4923030;58;1136595;-73
2023/12/20 10:50:45;;;;;;;3.85;1.70;;;;;;;5.33;100.00;99670.83;5003758;57;1136739;-73
2023/12/20 10:55:54;;;;;;;8.73;2.37;;;;;;;5.30;100.00;99666.63;4979535;57;1134471;-78
2023/12/20 11:01:04;;;;;;;14.70;4.12;;;;;;;5.29;100.00;99655.31;4932435;57;1134479;-75
2023/12/20 11:06:20;;;;;;;14.63;3.37;;;;;;;5.28;100.00;99647.55;4880419;58;1136576;-75
2023/12/20 11:11:33;;;;;;;5.95;2.37;;;;;;;5.27;100.00;99626.20;4929808;58;1136853;-70
2023/12/20 11:16:39;;;;;;;14.78;2.58;;;;;;;5.24;100.00;99614.15;4831177;58;1134678;-70
2023/12/20 11:21:46;;;;;;;9.35;2.05;;;;;;;5.24;100.00;99614.15;4831155;58;1136902;-76
2023/12/20 11:26:55;;;;;;;11.13;2.93;;;;;;;5.22;100.00;99600.77;4900597;58;1134645;-75
2023/12/20 11:32:05;;;;;;;10.35;2.08;;;;;;;5.19;100.00;99595.30;4823195;58;1136618;-77
2023/12/20 11:37:10;;;;;;;8.23;1.83;;;;;;;5.15;100.00;99592.52;4859091;58;1136906;-78
2023/12/20 11:42:17;;;;;;;6.37;2.30;;;;;;;5.11;100.00;99585.81;4882666;58;1134729;-80
2023/12/20 11:47:23;;;;;;;9.83;3.87;;;;;;;5.05;100.00;99570.97;4867164;58;1143576;-77
2023/12/20 11:52:28;;;;;;;8.77;3.33;;;;;;;5.03;100.00;99571.58;4924525;58;1134733;-78
2023/12/20 11:57:36;;;;;;;10.63;1.72;;;;;;;4.97;100.00;99568.91;4909695;58;1134680;-81
2023/12/20 12:02:41;;;;;;;20.63;8.73;;;;;;;4.92;100.00;99556.11;4910976;58;1136600;-81
2023/12/20 12:07:47;;;;;;;12.90;5.03;;;;;;;4.91;100.00;99556.22;4958387;57;1137057;-78
2023/12/20 12:12:53;;;;;;;4.60;1.57;;;;;;;4.89;100.00;99532.74;5026586;57;1136734;-77
2023/12/20 12:17:59;;;;;;;7.72;2.45;;;;;;;4.92;100.00;99521.22;4916355;58;1134466;-81
2023/12/20 12:23:06;;;;;;;7.47;2.53;;;;;;;4.92;100.00;99507.64;4885882;58;1134615;-78
2023/12/20 12:28:13;;;;;;;12.50;2.70;;;;;;;4.93;100.00;99498.84;4905733;58;1134596;-80
2023/12/20 12:33:19;;;;;;;5.78;1.75;;;;;;;4.93;100.00;99498.00;4892864;58;1136590;-72
2023/12/20 12:38:26;;;;;;;3.92;1.50;;;;;;;4.93;100.00;99495.38;4880722;58;1134439;-77
2023/12/20 12:43:33;;;;;;;25.48;9.78;;;;;;;4.93;100.00;99492.29;4926639;58;1134504;-69
2023/12/20 12:48:39;;;;;;;34.33;10.87;;;;;;;4.94;100.00;99483.96;4881487;58;1136643;-72
2023/12/20 12:53:45;;;;;;;31.00;10.68;;;;;;;4.95;100.00;99479.92;4873185;58;1138867;-76
2023/12/20 12:58:50;;;;;;;6.67;2.70;;;;;;;4.94;100.00;99468.23;4904227;58;1138753;-78
2023/12/20 13:03:56;;;;;;;6.57;3.13;;;;;;;4.89;100.00;99459.86;4882049;58;1134570;-75
2023/12/20 13:09:02;;;;;;;17.73;4.03;;;;;;;4.90;100.00;99472.85;4890972;58;1134939;-71
2023/12/20 13:14:10;;;;;;;12.60;3.00;;;;;;;4.92;100.00;99470.97;4923438;58;1136872;-76
2023/12/20 13:19:14;;;;;;;5.77;1.83;;;;;;;4.90;100.00;99450.58;4921884;58;1136805;-75
2023/12/20 13:24:20;;;;;;;10.70;4.33;;;;;;;4.91;100.00;99440.47;4914131;59;1134711;-78
2023/12/20 13:29:32;;;;;;;9.97;2.80;;;;;;;4.94;100.00;99444.19;4925901;58;1136526;-79
2023/12/20 13:34:33;;;;;;;13.60;3.30;;;;;;;4.94;100.00;99445.49;4879285;58;1134832;-78
2023/12/20 13:39:39;;;;;;;10.77;2.93;;;;;;;4.97;100.00;99427.89;4939587;58;1136472;-75
2023/12/20 13:44:44;;;;;;;3.03;1.37;;;;;;;4.99;100.00;99427.31;4854336;58;1136834;-75
2023/12/20 13:49:50;;;;;;;8.93;2.03;;;;;;;5.02;100.00;99421.85;4906677;58;1134632;-76
2023/12/20 13:54:55;;;;;;;25.17;3.80;;;;;;;5.05;100.00;99420.30;4912372;59;1134822;-75
2023/12/20 14:00:03;;;;;;;68.93;23.03;;;;;;;5.06;100.00;99418.04;4915673;59;1136740;-74
2023/12/20 14:05:11;;;;;;;26.50;7.87;;;;;;;5.08;100.00;99415.67;4893034;58;1138828;-75
2023/12/20 14:10:17;;;;;;;20.30;6.33;;;;;;;5.10;100.00;99405.09;4862451;58;1136688;-73
2023/12/20 14:15:25;;;;;;;13.62;4.22;;;;;;;5.11;100.00;99397.11;4863698;58;1136489;-81
2023/12/20 14:20:29;;;;;;;12.30;3.42;;;;;;;5.13;100.00;99399.63;4878299;58;1136787;-79
2023/12/20 14:25:41;;;;;;;7.50;2.57;;;;;;;5.13;100.00;99395.70;4863635;58;1136620;-78
2023/12/20 14:30:42;;;;;;;12.45;3.95;;;;;;;5.14;100.00;99394.75;4805224;58;1134597;-75
2023/12/20 14:35:48;;;;;;;15.63;2.87;;;;;;;5.16;100.00;99391.07;4769489;59;1136636;-81
2023/12/20 14:40:55;;;;;;;9.33;2.90;;;;;;;5.16;100.00;99377.97;4861721;58;1136709;-81
2023/12/20 14:46:00;;;;;;;14.83;4.77;;;;;;;5.16;100.00;99379.75;4860571;58;1134507;-85
2023/12/20 14:51:06;;;;;;;17.63;2.37;;;;;;;5.10;100.00;99371.85;4869544;59;1136729;-83
2023/12/20 14:56:11;;;;;;;12.43;4.05;;;;;;;5.03;100.00;99356.23;4795948;58;1136422;-84
2023/12/20 15:01:21;;;;;;;11.80;2.53;;;;;;;4.98;100.00;99357.51;4864020;58;1136796;-76
2023/12/20 15:06:25;;;;;;;8.50;2.40;;;;;;;4.93;100.00;99347.35;4900696;59;1136579;-78
2023/12/20 15:11:31;;;;;;;12.53;2.83;;;;;;;4.90;100.00;99347.57;4917622;58;1134582;-81
2023/12/20 15:16:37;;;;;;;8.00;2.67;;;;;;;4.88;100.00;99348.19;4914190;59;1136657;-80
2023/12/20 15:21:43;;;;;;;8.97;3.43;;;;;;;4.88;100.00;99338.55;4916226;58;1134459;-79
2023/12/20 15:26:48;;;;;;;7.03;2.30;;;;;;;4.86;100.00;99341.74;4965254;58;1134435;-83
2023/12/20 15:31:54;;;;;;;4.43;1.90;;;;;;;4.87;100.00;99336.87;4957632;58;1134657;-80
2023/12/20 15:37:00;;;;;;;4.70;2.10;;;;;;;4.83;100.00;99315.77;4912926;59;1134487;-81
2023/12/20 15:42:05;;;;;;;21.10;6.00;;;;;;;4.82;100.00;99326.35;4936177;58;1134556;-81
2023/12/20 15:47:11;;;;;;;10.20;2.77;;;;;;;4.79;100.00;99319.55;4916972;58;1136578;-82
2023/12/20 15:52:17;;;;;;;9.80;3.25;;;;;;;4.79;100.00;99320.86;4916710;58;1136660;-79
2023/12/20 15:57:23;;;;;;;21.97;6.00;;;;;;;4.79;100.00;99326.57;4910673;58;1134681;-83
2023/12/20 16:02:28;;;;;;;8.40;2.30;;;;;;;4.76;100.00;99313.69;4899945;58;1136770;-78
2023/12/20 16:07:34;;;;;;;1.07;1.03;;;;;;;4.76;100.00;99322.86;4914827;58;1134562;-82
2023/12/20 16:12:40;;;;;;;4.43;2.17;;;;;;;4.73;100.00;99309.54;4832143;59;1134748;-78
2023/12/20 16:17:46;;;;;;;0.83;0.83;;;;;;;4.69;100.00;99310.70;4814539;58;1134468;-81
2023/12/20 16:22:52;;;;;;;3.22;1.32;;;;;;;4.65;100.00;99310.55;4842447;58;1134673;-77
2023/12/20 16:27:57;;;;;;;5.27;0.93;;;;;;;4.62;100.00;99325.64;4819468;58;1134587;-76
2023/12/20 16:33:04;;;;;;;1.70;1.33;;;;;;;4.54;100.00;99325.73;4875620;58;1134584;-77
2023/12/20 16:38:10;;;;;;;2.70;1.20;;;;;;;4.51;100.00;99332.97;4822775;58;1134823;-81
2023/12/20 16:43:16;;;;;;;4.17;2.17;;;;;;;4.50;100.00;99329.98;4749101;59;1134693;-82
2023/12/20 16:48:21;;;;;;;4.03;0.90;;;;;;;4.47;100.00;99329.72;4758911;59;1134548;-81
2023/12/20 16:53:27;;;;;;;2.03;0.93;;;;;;;4.46;100.00;99338.99;4758599;58;1134520;-80
2023/12/20 16:58:33;;;;;;;2.17;1.40;;;;;;;4.42;100.00;99334.47;4816087;58;1134631;-80
2023/12/20 17:03:39;;;;;;;2.60;1.32;;;;;;;4.43;100.00;99354.95;4837792;58;1134688;-80
2023/12/20 17:08:44;;;;;;;0.77;0.77;;;;;;;4.38;100.00;99357.05;4836823;58;1134694;-77
2023/12/20 17:13:50;;;;;;;0.80;0.80;;;;;;;4.33;100.00;99352.59;4780860;59;1134694;-84
2023/12/20 17:18:55;;;;;;;2.50;1.13;;;;;;;4.28;100.00;99341.12;4676350;60;1134497;-81
2023/12/20 17:24:04;;;;;;;1.85;1.40;;;;;;;4.23;100.00;99358.95;4803888;59;1134484;-83
2023/12/20 17:29:10;;;;;;;3.87;1.00;;;;;;;4.15;100.00;99362.56;4767186;59;1134543;-81
2023/12/20 17:34:15;;;;;;;1.40;0.80;;;;;;;4.08;100.00;99370.02;4743437;60;1134588;-82
2023/12/20 17:39:21;;;;;;;2.63;1.60;;;;;;;4.05;100.00;99382.00;4649602;59;1134563;-82
2023/12/20 17:44:27;;;;;;;4.00;2.00;;;;;;;4.06;100.00;99391.99;4660181;60;1134742;-75
2023/12/20 17:49:33;;;;;;;4.83;1.70;;;;;;;4.05;100.00;99393.77;4654034;61;1135016;-72
2023/12/20 17:54:39;;;;;;;3.12;1.65;;;;;;;4.07;100.00;99384.04;4620629;60;1134837;-72
2023/12/20 17:59:44;;;;;;;3.33;1.60;;;;;;;4.08;100.00;99396.66;4746501;59;1134560;-77
2023/12/20 18:04:50;;;;;;;5.57;1.47;;;;;;;4.06;100.00;99411.61;4728107;59;1134595;-72
2023/12/20 18:09:55;;;;;;;2.93;1.30;;;;;;;4.04;100.00;99414.80;4727288;59;1134856;-82
2023/12/20 18:15:02;;;;;;;1.53;1.43;;;;;;;3.96;100.00;99409.27;4746387;60;1134830;-76
2023/12/20 18:20:08;;;;;;;3.13;1.30;;;;;;;3.87;100.00;99435.09;4729879;59;1134500;-78
2023/12/20 18:25:16;;;;;;;4.37;0.97;;;;;;;3.78;100.00;99422.65;4698401;59;1134619;-78
2023/12/20 18:30:21;;;;;;;2.47;1.23;;;;;;;3.67;100.00;99429.05;4707717;59;1134363;-74
2023/12/20 18:35:27;;;;;;;1.63;1.53;;;;;;;3.63;100.00;99447.20;4658993;60;1134726;-81
2023/12/20 18:40:32;;;;;;;2.10;0.80;;;;;;;3.54;100.00;99439.48;4658653;59;1134591;-81
2023/12/20 18:45:38;;;;;;;2.50;1.37;;;;;;;3.45;100.00;99451.86;4657226;58;1134418;-77
2023/12/20 18:50:44;;;;;;;2.70;0.87;;;;;;;3.43;100.00;99449.81;4747144;60;1134485;-82
2023/12/20 18:55:49;;;;;;;2.90;1.80;;;;;;;3.43;100.00;99447.20;4732559;58;1134543;-83
2023/12/20 19:00:55;;;;;;;6.37;1.90;;;;;;;3.39;100.00;99454.86;4796488;59;1134442;-83
2023/12/20 19:06:02;;;;;;;11.03;2.03;;;;;;;3.39;100.00;99462.70;4747604;59;1134628;-81
2023/12/20 19:11:08;;;;;;;6.40;2.07;;;;;;;3.37;100.00;99465.03;4805243;59;1136660;-78
2023/12/20 19:16:14;;;;;;;11.47;2.50;;;;;;;3.40;100.00;99457.00;4744205;60;1134327;-81
2023/12/20 19:21:20;;;;;;;7.40;1.63;;;;;;;3.39;100.00;99454.02;4838731;59;1136433;-83
2023/12/20 19:26:26;;;;;;;16.05;2.02;;;;;;;3.36;100.00;99458.97;4804910;58;1134904;-80
2023/12/20 19:31:32;;;;;;;8.93;2.02;;;;;;;3.34;100.00;99457.42;4832918;58;1136723;-79
2023/12/20 19:36:37;;;;;;;6.93;2.30;;;;;;;3.32;100.00;99448.38;4822796;58;1134852;-84
2023/12/20 19:41:43;;;;;;;8.80;1.98;;;;;;;3.32;100.00;99454.06;4682086;60;1134413;-79
2023/12/20 19:46:49;;;;;;;5.80;2.10;;;;;;;3.33;100.00;99453.13;4828569;58;1134595;-80
2023/12/20 19:51:55;;;;;;;6.83;2.00;;;;;;;3.34;100.00;99446.50;4805143;58;1134604;-79
2023/12/20 19:57:00;;;;;;;10.57;2.17;;;;;;;3.35;100.00;99450.80;4827626;59;1134955;-78
2023/12/20 20:02:07;;;;;;;8.60;2.40;;;;;;;3.36;100.00;99448.52;4777695;59;1136733;-80
2023/12/20 20:07:14;;;;;;;5.73;2.10;;;;;;;3.36;100.00;99445.09;4685205;60;1134517;-81
2023/12/20 20:12:19;;;;;;;10.73;2.47;;;;;;;3.34;100.00;99445.66;4767381;60;1134716;-80
2023/12/20 20:17:25;;;;;;;7.07;3.30;;;;;;;3.35;100.00;99450.80;4743952;59;1136675;-80
2023/12/20 20:22:31;;;;;;;8.23;2.77;;;;;;;3.36;100.00;99441.17;4771481;59;1134550;-78
2023/12/20 20:27:37;;;;;;;7.36;2.32;;;;;;;3.34;100.00;99445.20;4725998;59;1134695;-82
2023/12/20 20:32:44;;;;;;;6.00;2.95;;;;;;;3.33;100.00;99446.59;4670825;60;1134539;-79
2023/12/20 20:37:50;;;;;;;6.20;3.03;;;;;;;3.34;100.00;99444.36;4700365;61;1134512;-78
2023/12/20 20:42:56;;;;;;;8.83;3.00;;;;;;;3.31;100.00;99448.00;4786986;59;1134466;-79
2023/12/20 20:48:01;;;;;;;13.13;2.23;;;;;;;3.31;100.00;99453.70;4806772;59;1134530;-77
2023/12/20 20:53:07;;;;;;;14.38;3.58;;;;;;;3.31;100.00;99460.23;4784819;60;1136458;-80
2023/12/20 20:58:12;;;;;;;9.03;2.80;;;;;;;3.31;100.00;99471.52;4785573;60;1136870;-78
2023/12/20 21:03:18;;;;;;;9.47;2.83;;;;;;;3.31;100.00;99473.30;4805386;59;1134442;-79
2023/12/20 21:08:24;;;;;;;10.00;3.17;;;;;;;3.31;100.00;99493.73;4815148;59;1134270;-79
2023/12/20 21:13:30;;;;;;;13.10;3.13;;;;;;;3.33;100.00;99492.33;4808821;59;1136751;-81
2023/12/20 21:18:35;;;;;;;14.47;3.67;;;;;;;3.35;100.00;99485.23;4809124;60;1136635;-75
2023/12/20 21:23:41;;;;;;;13.53;2.87;;;;;;;3.35;100.00;99471.70;4857721;58;1136731;-76
2023/12/20 21:28:47;;;;;;;6.53;1.70;;;;;;;3.37;100.00;99468.95;4864584;59;1136924;-79
2023/12/20 21:33:54;;;;;;;6.23;2.27;;;;;;;3.38;100.00;99473.25;4858252;58;1134829;-82
2023/12/20 21:39:00;;;;;;;9.97;3.53;;;;;;;3.41;100.00;99458.22;4807761;58;1134781;-76
2023/12/20 21:44:07;;;;;;;11.80;3.63;;;;;;;3.45;100.00;99461.48;4821579;58;1134658;-77
2023/12/20 21:49:12;;;;;;;12.83;2.57;;;;;;;3.54;100.00;99464.78;4806943;58;1136702;-77
2023/12/20 21:54:18;;;;;;;13.00;3.07;;;;;;;3.56;100.00;99450.30;4845284;58;1136601;-75
2023/12/20 21:59:29;;;;;;;12.25;2.80;;;;;;;3.60;100.00;99457.86;4871425;58;1136541;-74
2023/12/20 22:04:31;;;;;;;11.63;2.17;;;;;;;3.64;100.00;99457.19;4913920;58;1143731;-77
2023/12/20 22:09:37;;;;;;;16.77;3.97;;;;;;;3.66;100.00;99457.47;4851388;59;1137147;-75
2023/12/20 22:14:42;;;;;;;20.00;4.30;;;;;;;3.74;100.00;99455.16;4843094;59;1137013;-76
2023/12/20 22:19:48;;;;;;;22.20;3.27;;;;;;;3.76;100.00;99444.14;4891171;58;1136970;-75
2023/12/20 22:24:54;;;;;;;13.00;3.00;;;;;;;3.80;100.00;99441.69;4916460;59;1136482;-75
2023/12/20 22:29:59;;;;;;;67.40;15.93;;;;;;;3.84;100.00;99432.67;4916145;59;1136419;-74
2023/12/20 22:35:07;;;;;;;25.07;4.73;;;;;;;3.86;100.00;99429.49;4960647;58;1138791;-77
2023/12/20 22:40:13;;;;;;;22.30;4.20;;;;;;;3.87;100.00;99426.41;4970385;58;1136725;-77
2023/12/20 22:45:19;;;;;;;14.57;3.63;;;;;;;3.86;100.00;99411.66;4971303;57;1136710;-77
2023/12/20 22:50:24;;;;;;;17.93;4.17;;;;;;;3.87;100.00;99402.87;4966376;57;1136621;-77
2023/12/20 22:55:31;;;;;;;15.75;3.17;;;;;;;3.86;100.00;99415.11;4930281;57;1136609;-77
2023/12/20 23:00:36;;;;;;;19.20;3.60;;;;;;;3.86;100.00;99409.03;4926227;58;1136339;-77
2023/12/20 23:05:42;;;;;;;32.84;6.76;;;;;;;3.88;100.00;99400.16;4957607;58;1136876;-74
2023/12/20 23:10:47;;;;;;;20.30;5.13;;;;;;;3.89;100.00;99380.91;4977472;57;1137000;-76
2023/12/20 23:15:53;;;;;;;3.10;1.67;;;;;;;3.92;100.00;99393.41;4936070;57;1136854;-76
2023/12/20 23:20:58;;;;;;;15.53;3.50;;;;;;;3.90;100.00;99376.52;4915409;57;1134626;-77